createdAt,value
2019-03-27T00:00:07.873Z,0.00
2019-03-27T00:01:07.962Z,0.00
2019-03-27T00:02:08.053Z,0.00
2019-03-27T00:03:08.142Z,0.00
2019-03-27T00:04:08.232Z,0.00
2019-03-27T00:05:08.321Z,0.00
2019-03-27T00:06:08.410Z,0.00
2019-03-27T00:07:08.542Z,0.00
2019-03-27T00:08:08.582Z,0.00
2019-03-27T00:09:08.666Z,0.00
2019-03-27T00:10:08.760Z,0.00
2019-03-27T00:11:08.841Z,0.00
2019-03-27T00:12:08.933Z,0.00
2019-03-27T00:13:09.021Z,0.00
2019-03-27T00:14:09.109Z,0.00
2019-03-27T00:15:12.976Z,0.00
2019-03-27T00:16:09.290Z,0.00
2019-03-27T00:17:09.384Z,0.00
2019-03-27T00:18:09.486Z,0.00
2019-03-27T00:19:09.550Z,0.00
2019-03-27T00:20:09.641Z,0.00
2019-03-27T00:21:09.729Z,0.00
2019-03-27T00:22:09.819Z,0.00
2019-03-27T00:23:09.908Z,0.00
2019-03-27T00:24:09.998Z,0.00
2019-03-27T00:25:10.095Z,0.00
2019-03-27T00:26:10.178Z,0.00
2019-03-27T00:27:10.268Z,0.00
2019-03-27T00:28:10.360Z,0.00
2019-03-27T00:29:10.450Z,0.00
2019-03-27T00:30:10.542Z,0.00
2019-03-27T00:31:12.020Z,0.00
2019-03-27T00:32:10.708Z,0.00
2019-03-27T00:33:10.800Z,0.00
2019-03-27T00:34:10.891Z,0.00
2019-03-27T00:35:10.982Z,0.00
2019-03-27T00:36:11.073Z,0.00
2019-03-27T00:37:11.161Z,0.00
2019-03-27T00:38:11.252Z,0.00
2019-03-27T00:39:11.345Z,0.00
2019-03-27T00:40:11.429Z,0.00
2019-03-27T00:41:11.515Z,0.00
2019-03-27T00:42:11.602Z,0.00
2019-03-27T00:43:11.691Z,0.00
2019-03-27T00:44:11.780Z,0.00
2019-03-27T00:45:25.453Z,0.00
2019-03-27T00:46:11.962Z,0.00
2019-03-27T00:47:12.049Z,0.00
2019-03-27T00:48:12.138Z,0.00
2019-03-27T00:49:12.228Z,0.00
2019-03-27T00:50:12.322Z,0.00
2019-03-27T00:51:12.406Z,0.00
2019-03-27T00:52:12.496Z,0.00
2019-03-27T00:53:12.591Z,0.00
2019-03-27T00:54:12.695Z,0.00
2019-03-27T00:55:12.787Z,0.00
2019-03-27T00:56:12.875Z,0.00
2019-03-27T00:57:12.965Z,0.00
2019-03-27T00:58:13.058Z,0.00
2019-03-27T00:59:13.145Z,0.00
2019-03-27T01:00:13.235Z,0.00
2019-03-27T01:01:13.320Z,0.00
2019-03-27T01:02:13.407Z,0.00
2019-03-27T01:03:13.497Z,0.00
2019-03-27T01:04:13.585Z,0.00
2019-03-27T01:05:13.676Z,0.00
2019-03-27T01:06:13.767Z,0.00
2019-03-27T01:07:13.895Z,0.00
2019-03-27T01:08:13.938Z,0.00
2019-03-27T01:09:14.021Z,0.00
2019-03-27T01:10:14.113Z,0.00
2019-03-27T01:11:14.201Z,0.00
2019-03-27T01:12:14.291Z,0.00
2019-03-27T01:13:14.379Z,0.00
2019-03-27T01:14:14.474Z,0.00
2019-03-27T01:15:14.563Z,0.00
2019-03-27T01:16:14.652Z,0.00
2019-03-27T01:17:14.743Z,0.00
2019-03-27T01:18:14.833Z,0.00
2019-03-27T01:19:14.919Z,0.00
2019-03-27T01:20:15.012Z,0.00
2019-03-27T01:21:15.099Z,0.00
2019-03-27T01:22:15.189Z,0.00
2019-03-27T01:23:15.279Z,0.00
2019-03-27T01:24:15.369Z,0.00
2019-03-27T01:25:15.453Z,0.00
2019-03-27T01:26:15.548Z,0.00
2019-03-27T01:27:15.636Z,0.00
2019-03-27T01:28:15.726Z,0.00
2019-03-27T01:29:15.815Z,0.00
2019-03-27T01:30:15.908Z,0.00
2019-03-27T01:31:15.993Z,0.00
2019-03-27T01:32:16.086Z,0.00
2019-03-27T01:33:16.174Z,0.00
2019-03-27T01:34:16.265Z,0.00
2019-03-27T01:35:16.353Z,0.00
2019-03-27T01:36:16.438Z,0.00
2019-03-27T01:37:16.541Z,0.00
2019-03-27T01:38:16.628Z,0.00
2019-03-27T01:39:16.719Z,0.00
2019-03-27T01:40:16.808Z,0.00
2019-03-27T01:41:16.898Z,0.00
2019-03-27T01:42:17.017Z,0.00
2019-03-27T01:43:17.111Z,0.00
2019-03-27T01:44:17.195Z,0.00
2019-03-27T01:45:17.332Z,0.00
2019-03-27T01:46:17.369Z,0.00
2019-03-27T01:47:17.458Z,0.00
2019-03-27T01:48:17.547Z,0.00
2019-03-27T01:49:17.636Z,0.00
2019-03-27T01:50:17.724Z,0.00
2019-03-27T01:51:17.812Z,0.00
2019-03-27T01:52:17.896Z,0.00
2019-03-27T01:53:17.995Z,0.00
2019-03-27T01:54:18.082Z,0.00
2019-03-27T01:55:18.167Z,0.00
2019-03-27T01:56:18.255Z,0.00
2019-03-27T01:57:18.355Z,0.00
2019-03-27T01:58:18.444Z,0.00
2019-03-27T01:59:18.552Z,0.00
2019-03-27T02:00:18.623Z,0.00
2019-03-27T02:01:18.714Z,0.00
2019-03-27T02:02:18.804Z,0.00
2019-03-27T02:03:18.896Z,0.00
2019-03-27T02:04:18.982Z,0.00
2019-03-27T02:05:19.077Z,0.00
2019-03-27T02:06:19.165Z,0.00
2019-03-27T02:07:19.256Z,0.00
2019-03-27T02:08:19.346Z,0.00
2019-03-27T02:09:19.436Z,0.00
2019-03-27T02:10:19.530Z,0.00
2019-03-27T02:11:19.620Z,0.00
2019-03-27T02:12:19.705Z,0.00
2019-03-27T02:13:19.796Z,0.00
2019-03-27T02:14:19.886Z,0.00
2019-03-27T02:15:19.972Z,0.00
2019-03-27T02:16:20.061Z,0.00
2019-03-27T02:17:20.153Z,0.00
2019-03-27T02:18:20.242Z,0.00
2019-03-27T02:19:20.331Z,0.00
2019-03-27T02:20:20.416Z,0.00
2019-03-27T02:21:20.516Z,0.00
2019-03-27T02:22:20.621Z,0.00
2019-03-27T02:23:20.714Z,0.00
2019-03-27T02:24:20.802Z,0.00
2019-03-27T02:25:20.900Z,0.00
2019-03-27T02:26:20.991Z,0.00
2019-03-27T02:27:21.078Z,0.00
2019-03-27T02:28:21.171Z,0.00
2019-03-27T02:29:21.259Z,0.00
2019-03-27T02:30:21.360Z,0.00
2019-03-27T02:31:21.464Z,0.00
2019-03-27T02:32:21.536Z,0.00
2019-03-27T02:33:21.625Z,0.00
2019-03-27T02:34:21.711Z,0.00
2019-03-27T02:35:21.802Z,0.00
2019-03-27T02:36:21.892Z,0.00
2019-03-27T02:37:21.985Z,0.00
2019-03-27T02:38:22.074Z,0.00
2019-03-27T02:39:22.153Z,0.00
2019-03-27T02:40:22.256Z,0.00
2019-03-27T02:41:22.354Z,0.00
2019-03-27T02:42:22.437Z,0.00
2019-03-27T02:43:22.531Z,0.00
2019-03-27T02:44:22.611Z,0.00
2019-03-27T02:45:22.727Z,0.00
2019-03-27T02:46:24.904Z,0.00
2019-03-27T02:47:22.913Z,0.00
2019-03-27T02:48:22.998Z,0.00
2019-03-27T02:49:23.086Z,0.00
2019-03-27T02:50:23.172Z,0.00
2019-03-27T02:51:23.264Z,0.00
2019-03-27T02:52:23.356Z,0.00
2019-03-27T02:53:23.439Z,0.00
2019-03-27T02:54:23.519Z,0.00
2019-03-27T02:55:23.613Z,0.00
2019-03-27T02:56:23.705Z,0.00
2019-03-27T02:57:23.790Z,0.00
2019-03-27T02:58:23.879Z,0.00
2019-03-27T02:59:23.970Z,0.00
2019-03-27T03:00:24.054Z,0.00
2019-03-27T03:01:24.142Z,0.00
2019-03-27T03:02:24.246Z,0.00
2019-03-27T03:03:24.323Z,0.00
2019-03-27T03:04:24.413Z,0.00
2019-03-27T03:05:24.500Z,0.00
2019-03-27T03:06:24.576Z,0.00
2019-03-27T03:09:07.192Z,0.00
2019-03-27T03:10:07.279Z,0.00
2019-03-27T03:11:07.374Z,0.00
2019-03-27T03:12:07.460Z,0.00
2019-03-27T03:13:07.548Z,0.00
2019-03-27T03:14:07.637Z,0.00
2019-03-27T03:15:07.719Z,0.00
2019-03-27T03:16:07.805Z,0.00
2019-03-27T03:17:07.894Z,0.00
2019-03-27T03:18:07.983Z,0.00
2019-03-27T03:19:08.070Z,0.00
2019-03-27T03:20:08.158Z,0.00
2019-03-27T03:21:08.247Z,0.00
2019-03-27T03:22:08.339Z,0.00
2019-03-27T03:23:08.419Z,0.00
2019-03-27T03:24:08.536Z,0.00
2019-03-27T03:25:08.657Z,0.00
2019-03-27T03:26:08.734Z,0.00
2019-03-27T03:27:08.823Z,0.00
2019-03-27T03:28:08.913Z,0.00
2019-03-27T03:29:09.005Z,0.00
2019-03-27T03:30:09.089Z,0.00
2019-03-27T03:31:09.181Z,0.00
2019-03-27T03:32:09.281Z,0.00
2019-03-27T03:33:09.354Z,0.00
2019-03-27T03:34:09.481Z,0.00
2019-03-27T03:35:09.606Z,0.00
2019-03-27T03:36:09.678Z,0.00
2019-03-27T03:37:09.768Z,0.00
2019-03-27T03:38:09.859Z,0.00
2019-03-27T03:39:09.947Z,0.00
2019-03-27T03:40:10.037Z,0.00
2019-03-27T03:41:10.128Z,0.00
2019-03-27T03:42:10.217Z,0.00
2019-03-27T03:43:10.309Z,0.00
2019-03-27T03:44:10.395Z,0.00
2019-03-27T03:45:10.489Z,0.00
2019-03-27T03:46:10.564Z,0.00
2019-03-27T03:47:10.650Z,0.00
2019-03-27T03:48:10.737Z,0.00
2019-03-27T03:49:10.827Z,0.00
2019-03-27T03:50:10.916Z,0.00
2019-03-27T03:51:11.009Z,0.00
2019-03-27T03:52:11.094Z,0.00
2019-03-27T03:53:11.183Z,0.00
2019-03-27T03:54:11.269Z,0.00
2019-03-27T03:55:11.356Z,0.00
2019-03-27T03:56:11.444Z,0.00
2019-03-27T03:57:11.557Z,0.00
2019-03-27T03:58:11.617Z,0.00
2019-03-27T03:59:11.699Z,0.00
2019-03-27T04:00:11.798Z,0.00
2019-03-27T04:01:11.889Z,0.00
2019-03-27T04:02:11.981Z,0.00
2019-03-27T04:03:12.069Z,0.00
2019-03-27T04:04:12.155Z,0.00
2019-03-27T04:05:12.259Z,0.00
2019-03-27T04:06:12.333Z,0.00
2019-03-27T04:07:12.425Z,0.00
2019-03-27T04:08:12.536Z,0.00
2019-03-27T04:09:12.623Z,0.00
2019-03-27T04:10:12.688Z,0.00
2019-03-27T04:11:12.784Z,0.00
2019-03-27T04:12:12.872Z,0.00
2019-03-27T04:13:12.961Z,0.00
2019-03-27T04:14:13.049Z,0.00
2019-03-27T04:15:13.138Z,0.00
2019-03-27T04:16:13.228Z,0.00
2019-03-27T04:17:17.382Z,0.00
2019-03-27T04:18:13.408Z,0.00
2019-03-27T04:19:13.497Z,0.00
2019-03-27T04:20:13.595Z,0.00
2019-03-27T04:21:13.647Z,0.00
2019-03-27T04:22:13.741Z,0.00
2019-03-27T04:23:13.825Z,0.00
2019-03-27T04:24:13.916Z,0.00
2019-03-27T04:25:14.011Z,0.00
2019-03-27T04:26:14.093Z,0.00
2019-03-27T04:27:14.181Z,0.00
2019-03-27T04:28:14.271Z,0.00
2019-03-27T04:29:14.398Z,0.00
2019-03-27T04:30:14.503Z,0.00
2019-03-27T04:31:14.534Z,0.00
2019-03-27T04:32:14.623Z,0.00
2019-03-27T04:33:14.739Z,0.00
2019-03-27T04:34:14.801Z,0.00
2019-03-27T04:35:14.887Z,0.00
2019-03-27T04:36:14.976Z,0.00
2019-03-27T04:37:15.069Z,0.00
2019-03-27T04:38:15.156Z,0.00
2019-03-27T04:39:15.244Z,0.00
2019-03-27T04:40:15.336Z,0.00
2019-03-27T04:41:15.462Z,0.00
2019-03-27T04:42:15.522Z,0.00
2019-03-27T04:43:15.598Z,0.00
2019-03-27T04:45:58.215Z,0.00
2019-03-27T04:46:58.343Z,0.00
2019-03-27T04:47:58.400Z,0.00
2019-03-27T04:48:58.484Z,0.00
2019-03-27T04:49:58.575Z,0.00
2019-03-27T04:50:58.652Z,0.00
2019-03-27T04:51:58.749Z,0.00
2019-03-27T04:52:58.838Z,0.00
2019-03-27T04:53:58.925Z,0.00
2019-03-27T04:54:59.012Z,0.00
2019-03-27T04:55:59.100Z,0.00
2019-03-27T04:56:59.187Z,0.00
2019-03-27T04:57:59.277Z,0.00
2019-03-27T04:58:59.373Z,0.00
2019-03-27T04:59:59.462Z,0.00
2019-03-27T05:00:59.547Z,0.00
2019-03-27T05:01:59.632Z,0.00
2019-03-27T05:02:59.724Z,0.00
2019-03-27T05:03:59.814Z,0.00
2019-03-27T05:04:59.901Z,0.00
2019-03-27T05:05:59.997Z,5.63
2019-03-27T05:07:00.081Z,5.63
2019-03-27T05:08:00.172Z,5.63
2019-03-27T05:09:00.256Z,5.63
2019-03-27T05:10:00.366Z,5.63
2019-03-27T05:11:00.434Z,5.63
2019-03-27T05:12:00.558Z,11.25
2019-03-27T05:13:00.625Z,11.25
2019-03-27T05:14:00.700Z,11.25
2019-03-27T05:15:00.788Z,11.25
2019-03-27T05:16:00.878Z,16.88
2019-03-27T05:17:00.967Z,16.88
2019-03-27T05:18:01.055Z,22.50
2019-03-27T05:19:01.144Z,22.50
2019-03-27T05:20:01.233Z,22.50
2019-03-27T05:21:01.319Z,28.13
2019-03-27T05:22:01.405Z,28.13
2019-03-27T05:23:01.503Z,33.75
2019-03-27T05:24:01.579Z,39.38
2019-03-27T05:25:01.665Z,39.38
2019-03-27T05:26:01.751Z,45.00
2019-03-27T05:27:01.839Z,45.00
2019-03-27T05:28:01.934Z,50.63
2019-03-27T05:29:02.019Z,56.25
2019-03-27T05:30:02.124Z,56.25
2019-03-27T05:31:02.214Z,61.88
2019-03-27T05:32:02.304Z,61.88
2019-03-27T05:33:02.392Z,67.50
2019-03-27T05:34:02.482Z,67.50
2019-03-27T05:35:02.566Z,73.13
2019-03-27T05:36:02.689Z,73.13
2019-03-27T05:37:02.756Z,73.13
2019-03-27T05:38:02.849Z,73.13
2019-03-27T05:39:02.936Z,73.13
2019-03-27T05:40:03.030Z,78.75
2019-03-27T05:41:03.115Z,78.75
2019-03-27T05:42:03.204Z,78.75
2019-03-27T05:43:03.291Z,78.75
2019-03-27T05:44:03.385Z,84.38
2019-03-27T05:45:03.475Z,84.38
2019-03-27T05:46:03.578Z,84.38
2019-03-27T05:47:03.662Z,90.00
2019-03-27T05:48:03.744Z,90.00
2019-03-27T05:49:03.835Z,90.00
2019-03-27T05:50:03.923Z,90.00
2019-03-27T05:51:04.020Z,84.38
2019-03-27T05:52:04.106Z,90.00
2019-03-27T05:53:04.191Z,90.00
2019-03-27T05:54:04.276Z,90.00
2019-03-27T05:55:04.378Z,90.00
2019-03-27T05:56:04.464Z,90.00
2019-03-27T05:57:04.592Z,90.00
2019-03-27T05:58:04.681Z,95.63
2019-03-27T05:59:04.761Z,95.63
2019-03-27T06:00:04.854Z,95.63
2019-03-27T06:01:04.938Z,101.25
2019-03-27T06:02:05.029Z,106.88
2019-03-27T06:03:05.116Z,118.13
2019-03-27T06:04:05.196Z,112.50
2019-03-27T06:05:05.285Z,112.50
2019-03-27T06:06:05.410Z,112.50
2019-03-27T06:07:05.461Z,106.88
2019-03-27T06:08:05.536Z,106.88
2019-03-27T06:09:05.678Z,101.25
2019-03-27T06:10:05.765Z,95.63
2019-03-27T06:11:05.854Z,84.38
2019-03-27T06:12:05.944Z,84.38
2019-03-27T06:13:06.033Z,84.38
2019-03-27T06:14:06.121Z,84.38
2019-03-27T06:15:06.210Z,84.38
2019-03-27T06:16:06.301Z,90.00
2019-03-27T06:17:06.393Z,90.00
2019-03-27T06:18:13.011Z,90.00
2019-03-27T06:19:06.599Z,90.00
2019-03-27T06:20:06.759Z,95.63
2019-03-27T06:21:06.779Z,95.63
2019-03-27T06:22:06.861Z,101.25
2019-03-27T06:23:06.949Z,106.88
2019-03-27T06:24:07.040Z,112.50
2019-03-27T06:25:07.130Z,112.50
2019-03-27T06:26:07.222Z,106.88
2019-03-27T06:27:07.303Z,112.50
2019-03-27T06:28:07.391Z,118.13
2019-03-27T06:29:07.494Z,129.38
2019-03-27T06:30:07.576Z,135.00
2019-03-27T06:31:07.665Z,140.63
2019-03-27T06:32:07.753Z,146.25
2019-03-27T06:33:07.842Z,146.25
2019-03-27T06:34:07.931Z,140.63
2019-03-27T06:35:08.020Z,135.00
2019-03-27T06:36:08.111Z,129.38
2019-03-27T06:37:08.197Z,123.75
2019-03-27T06:38:08.307Z,123.75
2019-03-27T06:39:08.401Z,118.13
2019-03-27T06:40:08.482Z,118.13
2019-03-27T06:41:08.585Z,112.50
2019-03-27T06:42:08.675Z,112.50
2019-03-27T06:43:08.782Z,106.88
2019-03-27T06:44:08.840Z,106.88
2019-03-27T06:45:08.929Z,101.25
2019-03-27T06:46:09.019Z,101.25
2019-03-27T06:47:09.094Z,95.63
2019-03-27T06:48:09.203Z,95.63
2019-03-27T06:49:09.289Z,95.63
2019-03-27T06:50:09.376Z,95.63
2019-03-27T06:51:09.481Z,95.63
2019-03-27T06:52:09.589Z,95.63
2019-03-27T06:53:09.669Z,95.63
2019-03-27T06:54:09.755Z,101.25
2019-03-27T06:55:09.842Z,101.25
2019-03-27T06:56:09.931Z,112.50
2019-03-27T06:57:10.024Z,112.50
2019-03-27T06:58:10.113Z,123.75
2019-03-27T06:59:10.200Z,129.38
2019-03-27T07:00:10.298Z,135.00
2019-03-27T07:01:10.377Z,140.63
2019-03-27T07:02:10.469Z,140.63
2019-03-27T07:03:10.549Z,146.25
2019-03-27T07:04:11.094Z,151.88
2019-03-27T07:05:10.756Z,157.50
2019-03-27T07:06:10.801Z,157.50
2019-03-27T07:07:10.896Z,157.50
2019-03-27T07:08:10.981Z,151.88
2019-03-27T07:09:11.070Z,151.88
2019-03-27T07:10:11.161Z,146.25
2019-03-27T07:11:11.254Z,140.63
2019-03-27T07:12:21.128Z,140.63
2019-03-27T07:13:11.459Z,135.00
2019-03-27T07:14:11.513Z,135.00
2019-03-27T07:15:11.604Z,135.00
2019-03-27T07:16:11.690Z,140.63
2019-03-27T07:17:11.779Z,140.63
2019-03-27T07:18:11.879Z,146.25
2019-03-27T07:19:11.959Z,146.25
2019-03-27T07:20:12.049Z,151.88
2019-03-27T07:21:12.139Z,151.88
2019-03-27T07:22:12.231Z,151.88
2019-03-27T07:23:12.321Z,146.25
2019-03-27T07:24:12.412Z,151.88
2019-03-27T07:25:12.506Z,146.25
2019-03-27T07:26:12.577Z,146.25
2019-03-27T07:27:12.675Z,146.25
2019-03-27T07:28:12.762Z,146.25
2019-03-27T07:29:12.852Z,146.25
2019-03-27T07:30:12.944Z,146.25
2019-03-27T07:31:13.033Z,146.25
2019-03-27T07:32:13.122Z,151.88
2019-03-27T07:33:13.225Z,151.88
2019-03-27T07:34:13.302Z,151.88
2019-03-27T07:35:13.395Z,157.50
2019-03-27T07:36:13.488Z,157.50
2019-03-27T07:37:13.601Z,157.50
2019-03-27T07:38:13.712Z,163.13
2019-03-27T07:39:13.796Z,163.13
2019-03-27T07:40:13.887Z,163.13
2019-03-27T07:41:13.975Z,157.50
2019-03-27T07:42:14.074Z,163.13
2019-03-27T07:43:14.164Z,163.13
2019-03-27T07:44:14.251Z,163.13
2019-03-27T07:45:14.345Z,163.13
2019-03-27T07:46:14.437Z,168.75
2019-03-27T07:47:14.524Z,163.13
2019-03-27T07:48:14.620Z,168.75
2019-03-27T07:49:14.720Z,168.75
2019-03-27T07:50:14.795Z,174.38
2019-03-27T07:51:14.883Z,180.00
2019-03-27T07:52:14.972Z,180.00
2019-03-27T07:53:15.071Z,180.00
2019-03-27T07:54:15.151Z,180.00
2019-03-27T07:55:19.750Z,180.00
2019-03-27T07:56:15.340Z,180.00
2019-03-27T07:57:15.503Z,180.00
2019-03-27T07:58:15.612Z,180.00
2019-03-27T07:59:15.644Z,180.00
2019-03-27T08:00:15.734Z,185.63
2019-03-27T08:01:15.822Z,185.63
2019-03-27T08:02:15.912Z,191.25
2019-03-27T08:03:16.000Z,196.88
2019-03-27T08:04:16.092Z,202.50
2019-03-27T08:05:16.184Z,208.13
2019-03-27T08:06:16.269Z,208.13
2019-03-27T08:07:26.294Z,213.75
2019-03-27T08:08:16.445Z,219.38
2019-03-27T08:09:16.530Z,219.38
2019-03-27T08:10:16.624Z,225.00
2019-03-27T08:11:16.749Z,225.00
2019-03-27T08:12:16.813Z,225.00
2019-03-27T08:13:16.897Z,225.00
2019-03-27T08:14:16.991Z,225.00
2019-03-27T08:15:17.078Z,225.00
2019-03-27T08:16:17.174Z,225.00
2019-03-27T08:17:17.263Z,225.00
2019-03-27T08:18:17.351Z,219.38
2019-03-27T08:19:17.444Z,219.38
2019-03-27T08:20:17.551Z,213.75
2019-03-27T08:21:17.636Z,213.75
2019-03-27T08:22:17.721Z,208.13
2019-03-27T08:23:17.830Z,208.13
2019-03-27T08:24:17.899Z,208.13
2019-03-27T08:25:18.082Z,208.13
2019-03-27T08:26:18.080Z,213.75
2019-03-27T08:27:18.171Z,219.38
2019-03-27T08:28:18.262Z,225.00
2019-03-27T08:29:18.352Z,230.63
2019-03-27T08:30:18.440Z,236.25
2019-03-27T08:31:18.527Z,236.25
2019-03-27T08:32:18.607Z,241.88
2019-03-27T08:33:18.714Z,247.50
2019-03-27T08:34:18.797Z,258.75
2019-03-27T08:35:18.885Z,258.75
2019-03-27T08:36:18.976Z,264.38
2019-03-27T08:37:19.066Z,264.38
2019-03-27T08:38:19.160Z,270.00
2019-03-27T08:39:19.248Z,275.63
2019-03-27T08:40:19.336Z,275.63
2019-03-27T08:41:19.437Z,281.25
2019-03-27T08:42:19.517Z,281.25
2019-03-27T08:43:21.897Z,292.50
2019-03-27T08:44:19.697Z,298.13
2019-03-27T08:45:19.817Z,303.75
2019-03-27T08:46:19.891Z,309.38
2019-03-27T08:47:19.982Z,315.00
2019-03-27T08:48:20.074Z,320.63
2019-03-27T08:49:22.114Z,326.25
2019-03-27T08:50:20.256Z,326.25
2019-03-27T08:51:20.345Z,326.25
2019-03-27T08:52:20.430Z,326.25
2019-03-27T08:53:20.516Z,326.25
2019-03-27T08:54:20.716Z,326.25
2019-03-27T08:55:20.723Z,331.88
2019-03-27T08:56:20.901Z,331.88
2019-03-27T08:57:20.891Z,331.88
2019-03-27T08:58:20.983Z,331.88
2019-03-27T08:59:21.074Z,337.50
2019-03-27T09:00:21.496Z,348.75
2019-03-27T09:01:21.256Z,343.13
2019-03-27T09:02:21.346Z,348.75
2019-03-27T09:03:21.437Z,348.75
2019-03-27T09:04:21.540Z,348.75
2019-03-27T09:05:21.620Z,354.38
2019-03-27T09:06:33.003Z,360.00
2019-03-27T09:07:21.800Z,360.00
2019-03-27T09:08:21.895Z,360.00
2019-03-27T09:09:21.989Z,360.00
2019-03-27T09:10:22.080Z,365.63
2019-03-27T09:11:22.188Z,371.25
2019-03-27T09:12:22.252Z,376.88
2019-03-27T09:13:22.341Z,382.50
2019-03-27T09:14:22.433Z,382.50
2019-03-27T09:15:22.552Z,388.13
2019-03-27T09:16:22.616Z,393.75
2019-03-27T09:17:22.704Z,388.13
2019-03-27T09:18:22.796Z,393.75
2019-03-27T09:19:35.125Z,393.75
2019-03-27T09:20:22.976Z,393.75
2019-03-27T09:21:23.070Z,399.38
2019-03-27T09:22:23.160Z,399.38
2019-03-27T09:23:23.260Z,399.38
2019-03-27T09:24:23.351Z,399.38
2019-03-27T09:25:23.457Z,399.38
2019-03-27T09:26:23.530Z,405.00
2019-03-27T09:27:23.621Z,405.00
2019-03-27T09:28:23.716Z,405.00
2019-03-27T09:29:23.806Z,405.00
2019-03-27T09:30:23.893Z,405.00
2019-03-27T09:31:23.983Z,410.63
2019-03-27T09:32:24.075Z,416.25
2019-03-27T09:33:24.169Z,421.88
2019-03-27T09:34:24.261Z,427.50
2019-03-27T09:35:24.353Z,427.50
2019-03-27T09:36:24.445Z,433.13
2019-03-27T09:37:24.540Z,433.13
2019-03-27T09:38:24.636Z,433.13
2019-03-27T09:39:24.727Z,433.13
2019-03-27T09:40:24.818Z,427.50
2019-03-27T09:41:24.911Z,427.50
2019-03-27T09:42:25.003Z,427.50
2019-03-27T09:43:25.099Z,433.13
2019-03-27T09:44:25.188Z,433.13
2019-03-27T09:45:25.284Z,427.50
2019-03-27T09:46:25.377Z,427.50
2019-03-27T09:47:25.482Z,421.88
2019-03-27T09:48:25.605Z,421.88
2019-03-27T09:49:25.666Z,421.88
2019-03-27T09:50:25.754Z,421.88
2019-03-27T09:51:25.844Z,421.88
2019-03-27T09:52:25.937Z,421.88
2019-03-27T09:53:26.041Z,427.50
2019-03-27T09:54:26.129Z,427.50
2019-03-27T09:55:26.227Z,421.88
2019-03-27T09:56:26.318Z,416.25
2019-03-27T09:57:26.410Z,416.25
2019-03-27T09:58:26.504Z,410.63
2019-03-27T09:59:26.579Z,405.00
2019-03-27T10:00:26.698Z,399.38
2019-03-27T10:01:26.779Z,393.75
2019-03-27T10:02:26.875Z,399.38
2019-03-27T10:03:26.966Z,410.63
2019-03-27T10:04:27.062Z,410.63
2019-03-27T10:05:27.152Z,405.00
2019-03-27T10:06:27.248Z,410.63
2019-03-27T10:07:27.342Z,405.00
2019-03-27T10:08:27.443Z,421.88
2019-03-27T10:09:27.535Z,427.50
2019-03-27T10:10:27.614Z,438.75
2019-03-27T10:11:27.716Z,433.13
2019-03-27T10:12:27.807Z,427.50
2019-03-27T10:13:27.900Z,421.88
2019-03-27T10:14:27.992Z,416.25
2019-03-27T10:15:28.088Z,410.63
2019-03-27T10:16:28.171Z,410.63
2019-03-27T10:17:28.264Z,405.00
2019-03-27T10:18:28.360Z,393.75
2019-03-27T10:19:28.451Z,388.13
2019-03-27T10:20:28.546Z,376.88
2019-03-27T10:21:28.645Z,393.75
2019-03-27T10:22:28.757Z,382.50
2019-03-27T10:23:28.909Z,399.38
2019-03-27T10:24:28.888Z,405.00
2019-03-27T10:25:28.960Z,472.50
2019-03-27T10:26:29.055Z,399.38
2019-03-27T10:27:29.145Z,410.63
2019-03-27T10:28:29.241Z,444.38
2019-03-27T10:29:29.335Z,405.00
2019-03-27T10:30:29.451Z,388.13
2019-03-27T10:31:29.519Z,433.13
2019-03-27T10:32:29.597Z,382.50
2019-03-27T10:33:29.683Z,382.50
2019-03-27T10:34:29.779Z,388.13
2019-03-27T10:35:29.874Z,393.75
2019-03-27T10:36:29.958Z,405.00
2019-03-27T10:37:30.050Z,410.63
2019-03-27T10:38:30.145Z,416.25
2019-03-27T10:39:30.236Z,416.25
2019-03-27T10:40:30.325Z,421.88
2019-03-27T10:41:30.418Z,444.38
2019-03-27T10:42:30.513Z,478.13
2019-03-27T10:43:30.607Z,483.75
2019-03-27T10:44:30.908Z,478.13
2019-03-27T10:45:30.906Z,472.50
2019-03-27T10:46:30.907Z,478.13
2019-03-27T10:47:31.005Z,528.75
2019-03-27T10:48:31.100Z,455.63
2019-03-27T10:49:34.243Z,461.25
2019-03-27T10:50:31.286Z,466.88
2019-03-27T10:51:31.383Z,489.38
2019-03-27T10:52:31.479Z,540.00
2019-03-27T10:53:31.575Z,562.50
2019-03-27T10:54:31.665Z,646.88
2019-03-27T10:55:34.534Z,601.88
2019-03-27T10:56:31.853Z,618.75
2019-03-27T10:57:31.949Z,528.75
2019-03-27T10:58:32.044Z,511.88
2019-03-27T10:59:32.139Z,427.50
2019-03-27T11:00:32.231Z,416.25
2019-03-27T11:01:32.336Z,405.00
2019-03-27T11:02:32.419Z,399.38
2019-03-27T11:03:32.513Z,399.38
2019-03-27T11:04:32.608Z,393.75
2019-03-27T11:05:32.737Z,388.13
2019-03-27T11:06:32.783Z,382.50
2019-03-27T11:07:32.893Z,376.88
2019-03-27T11:08:32.989Z,376.88
2019-03-27T11:09:33.085Z,371.25
2019-03-27T11:10:33.181Z,365.63
2019-03-27T11:11:33.276Z,360.00
2019-03-27T11:12:33.368Z,360.00
2019-03-27T11:13:34.516Z,360.00
2019-03-27T11:14:38.191Z,365.63
2019-03-27T11:15:33.668Z,371.25
2019-03-27T11:16:33.766Z,376.88
2019-03-27T11:17:33.864Z,382.50
2019-03-27T11:18:33.960Z,382.50
2019-03-27T11:19:34.055Z,376.88
2019-03-27T11:20:34.149Z,410.63
2019-03-27T11:21:34.243Z,360.00
2019-03-27T11:22:34.338Z,348.75
2019-03-27T11:23:34.433Z,354.38
2019-03-27T11:24:34.530Z,371.25
2019-03-27T11:25:34.628Z,410.63
2019-03-27T11:26:34.708Z,382.50
2019-03-27T11:27:34.834Z,393.75
2019-03-27T11:28:34.887Z,399.38
2019-03-27T11:29:34.983Z,405.00
2019-03-27T11:30:35.077Z,410.63
2019-03-27T11:31:35.171Z,416.25
2019-03-27T11:32:35.269Z,421.88
2019-03-27T11:33:35.360Z,427.50
2019-03-27T11:34:35.480Z,427.50
2019-03-27T11:35:35.541Z,421.88
2019-03-27T11:36:35.630Z,410.63
2019-03-27T11:37:35.723Z,399.38
2019-03-27T11:38:37.465Z,393.75
2019-03-27T11:39:35.911Z,405.00
2019-03-27T11:40:36.007Z,393.75
2019-03-27T11:41:36.099Z,393.75
2019-03-27T11:42:36.199Z,393.75
2019-03-27T11:43:36.286Z,388.13
2019-03-27T11:44:36.381Z,388.13
2019-03-27T11:45:36.468Z,388.13
2019-03-27T11:46:36.556Z,382.50
2019-03-27T11:47:36.748Z,393.75
2019-03-27T11:48:36.764Z,382.50
2019-03-27T11:49:36.836Z,382.50
2019-03-27T11:50:44.924Z,382.50
2019-03-27T11:51:37.034Z,382.50
2019-03-27T11:52:37.127Z,376.88
2019-03-27T11:53:37.224Z,371.25
2019-03-27T11:54:37.315Z,371.25
2019-03-27T11:55:37.417Z,382.50
2019-03-27T11:56:37.521Z,382.50
2019-03-27T11:57:37.611Z,376.88
2019-03-27T11:58:37.666Z,376.88
2019-03-27T11:59:37.762Z,376.88
2019-03-27T12:00:37.862Z,376.88
2019-03-27T12:01:42.090Z,365.63
2019-03-27T12:02:38.044Z,348.75
2019-03-27T12:03:38.139Z,343.13
2019-03-27T12:04:38.255Z,343.13
2019-03-27T12:05:38.346Z,331.88
2019-03-27T12:06:38.440Z,326.25
2019-03-27T12:07:38.533Z,450.00
2019-03-27T12:08:38.631Z,511.88
2019-03-27T12:09:38.728Z,433.13
2019-03-27T12:10:38.820Z,478.13
2019-03-27T12:11:38.917Z,405.00
2019-03-27T12:12:39.010Z,365.63
2019-03-27T12:13:39.104Z,466.88
2019-03-27T12:14:39.199Z,444.38
2019-03-27T12:15:39.296Z,478.13
2019-03-27T12:16:39.387Z,551.25
2019-03-27T12:17:39.503Z,540.00
2019-03-27T12:18:39.575Z,540.00
2019-03-27T12:19:39.666Z,483.75
2019-03-27T12:20:39.758Z,523.13
2019-03-27T12:21:39.851Z,399.38
2019-03-27T12:22:39.945Z,405.00
2019-03-27T12:23:40.082Z,405.00
2019-03-27T12:24:40.146Z,360.00
2019-03-27T12:25:40.242Z,388.13
2019-03-27T12:26:40.335Z,371.25
2019-03-27T12:27:40.426Z,348.75
2019-03-27T12:28:40.519Z,331.88
2019-03-27T12:29:40.662Z,433.13
2019-03-27T12:30:40.799Z,320.63
2019-03-27T12:31:40.851Z,320.63
2019-03-27T12:32:40.946Z,320.63
2019-03-27T12:33:41.037Z,309.38
2019-03-27T12:34:41.152Z,309.38
2019-03-27T12:35:41.259Z,303.75
2019-03-27T12:36:41.343Z,292.50
2019-03-27T12:37:41.469Z,292.50
2019-03-27T12:38:41.544Z,281.25
2019-03-27T12:39:41.649Z,275.63
2019-03-27T12:40:41.742Z,264.38
2019-03-27T12:41:41.837Z,253.13
2019-03-27T12:42:41.930Z,253.13
2019-03-27T12:43:42.026Z,281.25
2019-03-27T12:44:42.119Z,315.00
2019-03-27T12:45:42.217Z,416.25
2019-03-27T12:46:42.306Z,315.00
2019-03-27T12:47:42.406Z,309.38
2019-03-27T12:48:42.497Z,270.00
2019-03-27T12:49:42.599Z,264.38
2019-03-27T12:50:44.376Z,264.38
2019-03-27T12:51:42.825Z,326.25
2019-03-27T12:52:42.922Z,410.63
2019-03-27T12:53:43.004Z,264.38